Willsboro, NY (12996)

12:04 AM EDT on July 29, 2016 (GMT -0400)
Southridge | | Change Station

Elev 217 ft 44.36 °N, 73.24 °W | Updated 6 minutes ago

Overcast
Overcast
68.0 °F
Feels Like 68.0 °F
N
0.0
Wind Variable Wind from WNW

Today
High -- | Low -- °F
--% Chance of Precip.
Yesterday
High -- | Low -- °F
Precip. -- in
Pressure 29.91 in
Visibility 10.0 miles
Clouds Overcast 7500 ft
Dew Point 68 °F
Humidity 99%
Rainfall in
Snow Depth Not available.
5:38 AM 8:21 PM
Waning Crescent, 26% visible
METAR KBTV 290354Z 08003KT 10SM OVC075 21/19 A2991 RMK AO2 SLP128 LAST AUGMENTED OBS OF THE DAY T02110189
Pressure 29.91 in
Visibility 10.0 miles
Clouds Overcast 7500 ft
Dew Point 68 °F
Humidity 99%
Rainfall in
Snow Depth Not available.
5:38 AM 8:21 PM
Waning Crescent, 26% visible
METAR KBTV 290354Z 08003KT 10SM OVC075 21/19 A2991 RMK AO2 SLP128 LAST AUGMENTED OBS OF THE DAY T02110189

10-Day Weather Forecast

Almanac

Astronomy

Jul. 29, 2016 Rise Set
Actual Time
Civil Twilight
Nautical Twilight
Astronomical Twilight
Moon
Length of Visible Light
Length of Day
Tomorrow will be .
, % of the Moon is Illuminated

Today's Extremes

State Highs State Lows

Community

WunderPhotos

Upload Photos

1,928,292 photos uploaded!

WunderBlog® & News

Nearby

Air Quality

  Air Quality AQ Index Pollutant
Not available.

Snow Depth

Station Depth Elevation

Earthquake Activity

City Distance Mag. Time & Date
Minimum magnitude displayed is 2.5.

Coastal Water Temperatures

Place Temperature

Stations

Nearby Weather Stations

Station Location Temp. Windchill Dew Point Humidity Wind Precip. Elev Updated Type
                   

Watches & Warnings

There are currently no watches in effect.